Volcan De Tauce — EAGW — position and weather

sailwx.info

Track history (hours):
 
Tides and Currents Weather Stations Pressure Air Temp Water Temp Dewpoint Dewpoint Depression Visibility Wind Speed Wind Dir Waves Ship Positions

Volcan De Tauce

Last reported at 2017-Oct-19 01:30 UTC. Time now 2017-Oct-19 01:49 UTC.
Position N 28°04' W 014°50'.

Length 120 m; draft 4.4 m.

Type: Passenger vessel. MMSI: 224761000.

Date/timePositionNaut miles runAvg speedWind from/ knotsBaromVisibWave heightAir tempDewpointWater temp
2017-Oct-19 01:30N 28°04' W 014°50'714.8
2017-Oct-19 01:00N 28°04' W 014°58'815.1
2017-Oct-19 00:30N 28°06' W 015°06'815.7
2017-Oct-19 00:00N 28°07' W 015°15'815.4
2017-Oct-18 23:30N 28°09' W 015°24'1 1.8
2017-Oct-18 23:00N 28°10' W 015°24'0 0.0
2017-Oct-18 22:30N 28°10' W 015°24'0 0.0
2017-Oct-18 22:00N 28°10' W 015°24'0 0.0
2017-Oct-18 21:30N 28°10' W 015°24'0 0.0
2017-Oct-18 21:00N 28°10' W 015°24'0 0.0
2017-Oct-18 20:31N 28°10' W 015°24'0 0.0
2017-Oct-18 20:01N 28°10' W 015°24'0 0.0
2017-Oct-18 19:31N 28°10' W 015°24'0 0.0
2017-Oct-18 19:01N 28°10' W 015°24'0 0.0
2017-Oct-18 18:31N 28°10' W 015°24'0 0.0
2017-Oct-18 18:00N 28°10' W 015°24'0 0.0
2017-Oct-18 17:30N 28°10' W 015°24'0 0.0
2017-Oct-18 17:01N 28°10' W 015°24'0 0.4
2017-Oct-18 16:31N 28°09' W 015°24'612.9
2017-Oct-18 16:01N 28°08' W 015°17'815.6
2017-Oct-18 15:31N 28°07' W 015°08'815.3
2017-Oct-18 15:01N 28°06' W 014°60'1515.3
2017-Oct-18 14:01N 28°03' W 014°43'815.5
2017-Oct-18 13:30N 28°02' W 014°34'815.9
2017-Oct-18 12:59N 28°01' W 014°24'1416.5
2017-Oct-18 12:08N 28°06' W 014°09'216.5
2017-Oct-18 12:00N 28°07' W 014°07'4 0.5
2017-Oct-18 03:52N 28°09' W 014°03'614.9
2017-Oct-18 03:28N 28°06' W 014°09'2514.5
2017-Oct-18 01:42N 28°03' W 014°38'315.6
2017-Oct-18 01:30N 28°03' W 014°42'815.8
2017-Oct-18 01:00N 28°05' W 014°50'815.2
2017-Oct-18 00:30N 28°05' W 014°59'815.4
2017-Oct-18 00:00N 28°07' W 015°07'815.8
2017-Oct-17 23:30N 28°08' W 015°16'713.9
2017-Oct-17 23:00N 28°09' W 015°24'0 0.5
2017-Oct-17 22:30N 28°10' W 015°24'0 0.0
2017-Oct-17 22:00N 28°10' W 015°24'0 0.0
2017-Oct-17 21:30N 28°10' W 015°24'0 0.0
2017-Oct-17 21:00N 28°10' W 015°24'0 0.0
2017-Oct-17 20:30N 28°10' W 015°24'0 0.0
2017-Oct-17 20:00N 28°10' W 015°24'0 0.0
2017-Oct-17 19:30N 28°10' W 015°24'0 0.0
2017-Oct-17 19:00N 28°10' W 015°24'0 0.0
2017-Oct-17 18:30N 28°10' W 015°24'0 0.0
2017-Oct-17 18:00N 28°10' W 015°24'0 0.0
2017-Oct-17 17:30N 28°10' W 015°24'0 0.0
2017-Oct-17 17:00N 28°10' W 015°24'3 5.9
2017-Oct-17 16:30N 28°08' W 015°21'815.6
2017-Oct-17 16:00N 28°07' W 015°12'815.5
2017-Oct-17 15:30N 28°06' W 015°04'714.9
2017-Oct-17 15:00N 28°05' W 014°55'714.9
2017-Oct-17 14:30N 28°04' W 014°47'715.0
2017-Oct-17 14:00N 28°03' W 014°39'714.7
2017-Oct-17 13:30N 28°02' W 014°30'816.1
2017-Oct-17 13:00N 28°01' W 014°21'1116.5
2017-Oct-17 12:20N 28°06' W 014°10'616.3
2017-Oct-17 11:58N 28°09' W 014°04'816.9
2017-Oct-17 11:30N 28°12' W 013°56'816.0
2017-Oct-17 11:00N 28°19' W 013°51'816.0
2017-Oct-17 10:30N 28°27' W 013°50'3 6.2
2017-Oct-17 10:00N 28°30' W 013°51'0 0.1
2017-Oct-17 06:03N 28°29' W 013°51'0 4.5
2017-Oct-17 06:00N 28°29' W 013°51'713.0
2017-Oct-17 05:26N 28°22' W 013°50'714.8
2017-Oct-17 04:57N 28°15' W 013°53'614.2
2017-Oct-17 04:30N 28°11' W 013°59'714.7
2017-Oct-17 04:00N 28°08' W 014°06'815.0
2017-Oct-17 03:30N 28°04' W 014°14'714.8
2017-Oct-17 03:00N 28°01' W 014°21'815.3
2017-Oct-17 02:30N 28°02' W 014°30'815.8
2017-Oct-17 02:01N 28°03' W 014°39'815.5
2017-Oct-17 01:29N 28°04' W 014°48'715.2
2017-Oct-17 01:01N 28°05' W 014°56'815.1
2017-Oct-17 00:31N 28°06' W 015°04'815.7
2017-Oct-17 00:01N 28°08' W 015°13'815.8
2017-Oct-16 23:31N 28°09' W 015°22'2 4.2
2017-Oct-16 23:00N 28°10' W 015°24'0 0.0
2017-Oct-16 22:30N 28°10' W 015°24'0 0.0
2017-Oct-16 22:00N 28°10' W 015°24'0 0.0
2017-Oct-16 21:30N 28°10' W 015°24'0 0.0
2017-Oct-16 21:00N 28°10' W 015°24'0 0.0
2017-Oct-16 20:30N 28°10' W 015°24'0 0.0
2017-Oct-16 20:00N 28°10' W 015°24'0 0.0
2017-Oct-16 19:30N 28°10' W 015°24'0 0.0
2017-Oct-16 19:00N 28°10' W 015°24'0 0.0
2017-Oct-16 18:30N 28°10' W 015°24'0 0.0
2017-Oct-16 18:01N 28°10' W 015°24'0 0.0
2017-Oct-16 17:30N 28°10' W 015°24'0 0.0
2017-Oct-16 17:00N 28°10' W 015°24'0 0.0
2017-Oct-16 16:30N 28°10' W 015°24'0 0.0
2017-Oct-16 16:00N 28°10' W 015°24'0 0.0
2017-Oct-16 15:30N 28°10' W 015°24'0 0.0
2017-Oct-16 15:00N 28°10' W 015°24'0 0.0
2017-Oct-16 14:30N 28°10' W 015°24'0 0.0
2017-Oct-16 13:30N 28°10' W 015°24'0 0.0
2017-Oct-16 13:01N 28°10' W 015°24'0 0.0
2017-Oct-16 12:30N 28°10' W 015°24'0 0.0
2017-Oct-16 12:00N 28°10' W 015°24'0 0.0
2017-Oct-16 11:30N 28°10' W 015°24'0 0.0
2017-Oct-16 11:00N 28°10' W 015°24'0 0.0
2017-Oct-16 10:30N 28°10' W 015°24'0 0.0
2017-Oct-16 10:00N 28°10' W 015°24'0 0.0
2017-Oct-16 09:30N 28°10' W 015°24'0 0.0
2017-Oct-16 09:00N 28°10' W 015°24'0 0.0
2017-Oct-16 08:30N 28°10' W 015°24'0 0.0
2017-Oct-16 08:00N 28°10' W 015°24'0 0.0
2017-Oct-16 07:30N 28°10' W 015°24'0 0.0
2017-Oct-16 07:00N 28°10' W 015°24'0 0.0
2017-Oct-16 06:30N 28°10' W 015°24'0 0.0
2017-Oct-16 06:00N 28°10' W 015°24'0 0.0
2017-Oct-16 05:30N 28°10' W 015°24'0 0.0
2017-Oct-16 05:01N 28°10' W 015°24'0 0.0
2017-Oct-16 04:30N 28°10' W 015°24'0 0.0
2017-Oct-16 04:01N 28°10' W 015°24'0 0.0
2017-Oct-16 03:30N 28°10' W 015°24'0 0.0
2017-Oct-16 03:00N 28°10' W 015°24'0 0.0
2017-Oct-16 02:30N 28°10' W 015°24'0 0.0
2017-Oct-16 02:00N 28°10' W 015°24'0 0.0
2017-Oct-16 01:30N 28°10' W 015°24'0 0.0
2017-Oct-16 01:00N 28°10' W 015°24'0 0.0
2017-Oct-16 00:30N 28°10' W 015°24'0 0.0
2017-Oct-16 00:00N 28°10' W 015°24'0 0.0
2017-Oct-15 23:31N 28°10' W 015°24'0 0.0
2017-Oct-15 23:00N 28°10' W 015°24'0 0.0
2017-Oct-15 22:30N 28°10' W 015°24'0 0.0
2017-Oct-15 22:00N 28°10' W 015°24'0 0.0
2017-Oct-15 21:30N 28°10' W 015°24'0 0.0
2017-Oct-15 21:00N 28°10' W 015°24'0 0.0
2017-Oct-15 20:30N 28°10' W 015°24'0 0.0
2017-Oct-15 20:00N 28°10' W 015°24'0 0.0
2017-Oct-15 19:30N 28°10' W 015°24'0 0.0
2017-Oct-15 19:00N 28°10' W 015°24'0 0.0
2017-Oct-15 18:30N 28°10' W 015°24'0 0.0
2017-Oct-15 18:00N 28°10' W 015°24'0 0.0
2017-Oct-15 17:30N 28°10' W 015°24'0 0.0
2017-Oct-15 17:00N 28°10' W 015°24'0 0.0
2017-Oct-15 16:30N 28°10' W 015°24'0 0.0
2017-Oct-15 16:00N 28°10' W 015°24'0 0.0
2017-Oct-15 15:30N 28°10' W 015°24'0 0.0
2017-Oct-15 15:00N 28°10' W 015°24'0 0.0
2017-Oct-15 14:00N 28°10' W 015°24'0 0.0
2017-Oct-15 13:30N 28°10' W 015°24'0 0.0
2017-Oct-15 13:01N 28°10' W 015°24'0 0.0
2017-Oct-15 12:31N 28°10' W 015°24'0 0.0
2017-Oct-15 12:01N 28°10' W 015°24'0 0.0
2017-Oct-15 11:30N 28°10' W 015°24'0 0.0
2017-Oct-15 11:00N 28°10' W 015°24'0 0.0
2017-Oct-15 10:31N 28°10' W 015°24'0 0.0
2017-Oct-15 10:00N 28°10' W 015°24'0 0.0
2017-Oct-15 09:30N 28°10' W 015°24'0 0.0
2017-Oct-15 09:00N 28°10' W 015°24'0 0.0
2017-Oct-15 08:30N 28°10' W 015°24'0 0.0
2017-Oct-15 08:00N 28°10' W 015°24'0 0.0
2017-Oct-15 07:30N 28°10' W 015°24'0 0.0
2017-Oct-15 07:00N 28°10' W 015°24'0 0.0
2017-Oct-15 06:30N 28°10' W 015°24'0 0.0
2017-Oct-15 06:00N 28°10' W 015°24'0 0.0
2017-Oct-15 05:30N 28°10' W 015°24'0 0.0
2017-Oct-15 05:00N 28°10' W 015°24'0 0.0
2017-Oct-15 04:30N 28°10' W 015°24'0 0.0
2017-Oct-15 04:00N 28°10' W 015°24'0 0.0
2017-Oct-15 03:30N 28°10' W 015°24'0 0.0
2017-Oct-15 03:00N 28°10' W 015°24'0 0.0
2017-Oct-15 02:30N 28°10' W 015°24'0 0.0
2017-Oct-15 02:00N 28°10' W 015°24'0 0.0
2017-Oct-15 01:30N 28°10' W 015°24'0 0.0
2017-Oct-15 01:00N 28°10' W 015°24'0 0.0
2017-Oct-15 00:30N 28°10' W 015°24'0 0.0
2017-Oct-15 00:00N 28°10' W 015°24'0 0.0
2017-Oct-14 23:30N 28°10' W 015°24'0 0.0
2017-Oct-14 23:00N 28°10' W 015°24'0 0.0
2017-Oct-14 22:30N 28°10' W 015°24'0 0.0
2017-Oct-14 22:00N 28°10' W 015°24'0 0.0
2017-Oct-14 21:30N 28°10' W 015°24'0 0.0
2017-Oct-14 21:01N 28°10' W 015°24'0 0.0
2017-Oct-14 20:30N 28°10' W 015°24'0 0.0
2017-Oct-14 20:00N 28°10' W 015°24'0 0.0
2017-Oct-14 19:30N 28°10' W 015°24'0 0.0
2017-Oct-14 19:00N 28°10' W 015°24'0 0.0
2017-Oct-14 18:30N 28°10' W 015°24'0 0.0
2017-Oct-14 18:00N 28°10' W 015°24'0 0.0
2017-Oct-14 17:30N 28°10' W 015°24'0 0.0
2017-Oct-14 17:00N 28°10' W 015°24'0 0.0
2017-Oct-14 16:30N 28°10' W 015°24'3 5.7
2017-Oct-14 16:00N 28°09' W 015°21'816.3
2017-Oct-14 15:30N 28°07' W 015°12'816.5
2017-Oct-14 15:00N 28°06' W 015°03'816.1
2017-Oct-14 14:30N 28°05' W 014°54'816.6
2017-Oct-14 14:00N 28°04' W 014°44'816.5
2017-Oct-14 13:30N 28°02' W 014°35'816.2
2017-Oct-14 13:00N 28°01' W 014°26'816.5
2017-Oct-14 12:30N 28°02' W 014°17'916.9
2017-Oct-14 11:58N 28°07' W 014°08'817.4
2017-Oct-14 11:30N 28°10' W 013°60'1016.6
2017-Oct-14 10:53N 28°18' W 013°52'617.2
2017-Oct-14 10:30N 28°24' W 013°49'611.9
2017-Oct-14 10:00N 28°30' W 013°51'0 0.0
2017-Oct-14 09:30N 28°30' W 013°51'0 0.0
2017-Oct-14 09:00N 28°30' W 013°51'0 0.0
2017-Oct-14 08:30N 28°30' W 013°51'0 0.0
2017-Oct-14 08:00N 28°30' W 013°51'0 0.0
2017-Oct-14 07:29N 28°30' W 013°51'0 0.0
2017-Oct-14 07:00N 28°30' W 013°51'0 0.0
2017-Oct-14 06:30N 28°30' W 013°51'0 0.0
2017-Oct-14 05:56N 28°30' W 013°51'1 1.2
2017-Oct-14 05:21N 28°29' W 013°51'2313.4
2017-Oct-14 03:38N 28°09' W 014°03'315.2
2017-Oct-14 03:26N 28°07' W 014°06'815.4
2017-Oct-14 02:53N 28°03' W 014°15'615.0
2017-Oct-14 02:30N 28°01' W 014°21'815.6
2017-Oct-14 02:01N 28°02' W 014°29'815.5
2017-Oct-14 01:31N 28°03' W 014°38'815.3
2017-Oct-14 01:01N 28°04' W 014°46'815.5
2017-Oct-14 00:30N 28°05' W 014°55'815.6
2017-Oct-14 00:01N 28°06' W 015°04'815.8
2017-Oct-13 23:31N 28°08' W 015°13'815.9
2017-Oct-13 23:01N 28°09' W 015°22'2 4.8
2017-Oct-13 22:30N 28°10' W 015°24'0 0.0
2017-Oct-13 22:01N 28°10' W 015°24'0 0.0
2017-Oct-13 21:30N 28°10' W 015°24'0 0.0
2017-Oct-13 21:00N 28°10' W 015°24'0 0.0
2017-Oct-13 20:30N 28°10' W 015°24'0 0.0
2017-Oct-13 20:00N 28°10' W 015°24'0 0.0
2017-Oct-13 19:30N 28°10' W 015°24'0 0.0
2017-Oct-13 19:00N 28°10' W 015°24'0 0.0
2017-Oct-13 18:30N 28°10' W 015°24'0 0.0
2017-Oct-13 18:00N 28°10' W 015°24'0 0.0
2017-Oct-13 17:30N 28°10' W 015°24'0 0.0
2017-Oct-13 17:00N 28°10' W 015°24'0 0.0
2017-Oct-13 16:30N 28°10' W 015°24'4 8.9
2017-Oct-13 16:00N 28°08' W 015°19'816.1
2017-Oct-13 15:30N 28°07' W 015°10'815.8
2017-Oct-13 15:00N 28°06' W 015°01'815.4
2017-Oct-13 14:31N 28°05' W 014°53'816.1
2017-Oct-13 14:01N 28°04' W 014°44'816.3
2017-Oct-13 13:30N 28°02' W 014°35'816.2
2017-Oct-13 13:00N 28°01' W 014°26'816.1
2017-Oct-13 12:30N 28°02' W 014°16'916.7
2017-Oct-13 11:59N 28°06' W 014°08'817.0
2017-Oct-13 11:31N 28°10' W 013°60'1616.2
2017-Oct-13 10:33N 28°23' W 013°50'116.8
2017-Oct-13 10:30N 28°24' W 013°49'612.3
2017-Oct-13 09:59N 28°30' W 013°51'0 0.0
2017-Oct-13 09:30N 28°30' W 013°51'0 0.0
2017-Oct-13 09:00N 28°30' W 013°51'0 0.0
2017-Oct-13 08:30N 28°30' W 013°51'0 0.0
2017-Oct-13 08:00N 28°30' W 013°51'0 0.0
2017-Oct-13 07:30N 28°30' W 013°51'0 0.0
2017-Oct-13 07:00N 28°30' W 013°51'0 0.0
2017-Oct-13 06:30N 28°30' W 013°51'0 0.0
2017-Oct-13 06:00N 28°30' W 013°51'0 0.0
2017-Oct-13 05:30N 28°30' W 013°51'1 1.0
2017-Oct-13 04:59N 28°29' W 013°51'613.1
2017-Oct-13 04:30N 28°23' W 013°50'815.7
2017-Oct-13 04:00N 28°16' W 013°53'1114.9
2017-Oct-13 03:16N 28°09' W 014°03'415.4
2017-Oct-13 03:00N 28°07' W 014°07'915.5
2017-Oct-13 02:26N 28°03' W 014°16'615.3
2017-Oct-13 02:00N 28°01' W 014°23'816.2
2017-Oct-13 01:31N 28°02' W 014°32'815.6
2017-Oct-13 01:01N 28°03' W 014°41'815.7
2017-Oct-13 00:30N 28°04' W 014°49'815.9
2017-Oct-13 00:00N 28°06' W 014°58'816.0
2017-Oct-12 23:30N 28°07' W 015°07'815.7
2017-Oct-12 23:00N 28°08' W 015°16'714.3
2017-Oct-12 22:30N 28°09' W 015°24'0 0.3
2017-Oct-12 22:00N 28°10' W 015°24'0 0.0
2017-Oct-12 21:30N 28°10' W 015°24'0 0.0
2017-Oct-12 21:00N 28°10' W 015°24'0 0.0
2017-Oct-12 20:30N 28°10' W 015°24'0 0.0
2017-Oct-12 20:00N 28°10' W 015°24'0 0.0
2017-Oct-12 19:30N 28°10' W 015°24'0 0.0
2017-Oct-12 19:00N 28°10' W 015°24'0 0.0
2017-Oct-12 18:30N 28°10' W 015°24'0 0.0
2017-Oct-12 18:00N 28°10' W 015°24'0 0.0
2017-Oct-12 17:30N 28°10' W 015°24'0 0.0
2017-Oct-12 17:00N 28°10' W 015°24'0 0.0
2017-Oct-12 16:30N 28°10' W 015°24'3 6.3
2017-Oct-12 16:00N 28°08' W 015°21'816.4
2017-Oct-12 15:30N 28°07' W 015°12'816.3
2017-Oct-12 15:00N 28°06' W 015°02'816.0
2017-Oct-12 14:30N 28°05' W 014°53'816.1
2017-Oct-12 14:00N 28°04' W 014°44'816.4
2017-Oct-12 13:30N 28°02' W 014°35'816.7
2017-Oct-12 13:00N 28°01' W 014°26'816.3
2017-Oct-12 12:30N 28°02' W 014°17'1117.3
2017-Oct-12 11:52N 28°08' W 014°06'817.6
2017-Oct-12 11:26N 28°11' W 013°58'1116.5
2017-Oct-12 10:46N 28°20' W 013°51'517.0
2017-Oct-12 10:30N 28°25' W 013°49'511.1
2017-Oct-12 10:00N 28°30' W 013°51'0 0.0
2017-Oct-12 09:29N 28°30' W 013°51'0 0.0
2017-Oct-12 09:00N 28°30' W 013°51'0 0.0
2017-Oct-12 08:24N 28°30' W 013°51'0 0.0
2017-Oct-12 08:00N 28°30' W 013°51'0 0.0
2017-Oct-12 07:30N 28°30' W 013°51'0 0.0
2017-Oct-12 06:59N 28°30' W 013°51'0 0.0
2017-Oct-12 06:27N 28°30' W 013°51'0 0.0
2017-Oct-12 05:56N 28°30' W 013°51'1 2.2
2017-Oct-12 05:30N 28°29' W 013°51'715.1
2017-Oct-12 05:00N 28°22' W 013°50'815.5
2017-Oct-12 04:30N 28°15' W 013°54'714.8
2017-Oct-12 04:00N 28°11' W 014°01'815.7
2017-Oct-12 03:30N 28°07' W 014°08'815.8
2017-Oct-12 03:00N 28°03' W 014°16'915.1
2017-Oct-12 02:23N 28°01' W 014°27'615.4
2017-Oct-12 01:58N 28°02' W 014°34'715.3
2017-Oct-12 01:29N 28°03' W 014°42'815.3
2017-Oct-12 01:00N 28°04' W 014°50'815.5
2017-Oct-12 00:30N 28°06' W 014°59'815.5
2017-Oct-12 00:01N 28°07' W 015°07'815.1
2017-Oct-11 23:30N 28°08' W 015°16'714.5
2017-Oct-11 23:00N 28°09' W 015°24'0 0.8
2017-Oct-11 22:30N 28°10' W 015°24'0 0.0
2017-Oct-11 22:00N 28°10' W 015°24'0 0.0
2017-Oct-11 21:30N 28°10' W 015°24'0 0.0
2017-Oct-11 21:00N 28°10' W 015°24'0 0.0
2017-Oct-11 20:31N 28°10' W 015°24'0 0.0
2017-Oct-11 20:01N 28°10' W 015°24'0 0.0
2017-Oct-11 19:30N 28°10' W 015°24'0 0.0
2017-Oct-11 19:01N 28°10' W 015°24'0 0.0
2017-Oct-11 18:31N 28°10' W 015°24'0 0.0
2017-Oct-11 18:00N 28°10' W 015°24'0 0.0
2017-Oct-11 17:31N 28°10' W 015°24'0 0.0
2017-Oct-11 17:01N 28°10' W 015°24'14 0.8
2017-Oct-11 00:00N 28°07' W 015°09'815.2
2017-Oct-10 23:30N 28°08' W 015°17'612.1
2017-Oct-10 23:00N 28°10' W 015°24'0 0.0
2017-Oct-10 22:30N 28°10' W 015°24'0 0.0
2017-Oct-10 22:00N 28°10' W 015°24'0 0.0
2017-Oct-10 21:30N 28°10' W 015°24'0 0.0
2017-Oct-10 21:00N 28°10' W 015°24'0 0.0
2017-Oct-10 20:30N 28°10' W 015°24'0 0.0
2017-Oct-10 20:00N 28°10' W 015°24'0 0.0
2017-Oct-10 19:30N 28°10' W 015°24'0 0.0
2017-Oct-10 19:00N 28°10' W 015°24'0 0.0
2017-Oct-10 18:30N 28°10' W 015°24'0 0.0
2017-Oct-10 18:00N 28°10' W 015°24'0 0.0
2017-Oct-10 17:30N 28°10' W 015°24'0 0.0
2017-Oct-10 17:00N 28°10' W 015°24'0 0.5
2017-Oct-10 16:30N 28°09' W 015°24'713.9
2017-Oct-10 16:01N 28°08' W 015°16'816.1
2017-Oct-10 15:31N 28°06' W 015°07'816.2
2017-Oct-10 15:00N 28°05' W 014°58'1615.9
2017-Oct-10 14:01N 28°03' W 014°40'815.9
2017-Oct-10 13:31N 28°02' W 014°31'816.2
2017-Oct-10 13:00N 28°01' W 014°22'916.6
2017-Oct-10 12:30N 28°04' W 014°13'817.4
2017-Oct-10 12:00N 28°08' W 014°05'917.3
2017-Oct-10 11:30N 28°12' W 013°56'1516.6
2017-Oct-10 10:35N 28°26' W 013°49'1 0.3
2017-Oct-10 05:22N 28°27' W 013°50'2114.4
2017-Oct-10 03:53N 28°09' W 014°03'716.2
2017-Oct-10 03:27N 28°06' W 014°10'715.7
2017-Oct-10 03:00N 28°03' W 014°17'815.0
2017-Oct-10 02:29N 28°01' W 014°26'1615.4
2017-Oct-10 01:26N 28°04' W 014°44'715.7
2017-Oct-10 01:00N 28°05' W 014°51'815.7
2017-Oct-10 00:30N 28°06' W 014°60'815.5
2017-Oct-10 00:00N 28°07' W 015°09'815.2
2017-Oct-09 23:30N 28°08' W 015°17'612.7
2017-Oct-09 23:00N 28°10' W 015°24'0 0.0
2017-Oct-09 22:30N 28°10' W 015°24'0 0.0
2017-Oct-09 22:00N 28°10' W 015°24'0 0.0
2017-Oct-09 21:30N 28°10' W 015°24'0 0.0
2017-Oct-09 21:00N 28°10' W 015°24'0 0.0
2017-Oct-09 20:30N 28°10' W 015°24'0 0.0
2017-Oct-09 20:00N 28°10' W 015°24'0 0.0
2017-Oct-09 19:30N 28°10' W 015°24'0 0.0
2017-Oct-09 19:00N 28°10' W 015°24'0 0.0
2017-Oct-09 18:30N 28°10' W 015°24'0 0.0
2017-Oct-09 18:00N 28°10' W 015°24'0 0.0
2017-Oct-09 17:30N 28°10' W 015°24'0 0.0
2017-Oct-09 17:00N 28°10' W 015°24'0 0.0
2017-Oct-09 16:30N 28°10' W 015°24'0 0.0
2017-Oct-09 16:01N 28°10' W 015°24'0 0.0
2017-Oct-09 15:30N 28°10' W 015°24'0 0.0
2017-Oct-09 15:00N 28°10' W 015°24'0 0.0
2017-Oct-09 14:30N 28°10' W 015°24'0 0.0
2017-Oct-09 14:01N 28°10' W 015°24'0 0.0
2017-Oct-09 13:30N 28°10' W 015°24'0 0.0
2017-Oct-09 13:00N 28°10' W 015°24'0 0.0
2017-Oct-09 12:30N 28°10' W 015°24'0 0.0
2017-Oct-09 12:00N 28°10' W 015°24'0 0.0
2017-Oct-09 11:30N 28°10' W 015°24'0 0.0
2017-Oct-09 11:00N 28°10' W 015°24'0 0.0
2017-Oct-09 10:30N 28°10' W 015°24'0 0.0
2017-Oct-09 10:00N 28°10' W 015°24'0 0.0
2017-Oct-09 09:30N 28°10' W 015°24'0 0.0
2017-Oct-09 09:00N 28°10' W 015°24'0 0.0
2017-Oct-09 08:30N 28°10' W 015°24'0 0.0
2017-Oct-09 08:00N 28°10' W 015°24'0 0.0
2017-Oct-09 07:30N 28°10' W 015°24'0 0.0
2017-Oct-09 07:00N 28°10' W 015°24'0 0.0
2017-Oct-09 06:30N 28°10' W 015°24'0 0.0
2017-Oct-09 06:01N 28°10' W 015°24'0 0.0
2017-Oct-09 05:30N 28°10' W 015°24'0 0.0
2017-Oct-09 05:00N 28°10' W 015°24'0 0.0
2017-Oct-09 04:31N 28°10' W 015°24'0 0.0
2017-Oct-09 04:00N 28°10' W 015°24'0 0.0
2017-Oct-09 03:30N 28°10' W 015°24'0 0.0
2017-Oct-09 03:00N 28°10' W 015°24'0 0.0
2017-Oct-09 02:31N 28°10' W 015°24'0 0.0
2017-Oct-09 02:01N 28°10' W 015°24'0 0.0
2017-Oct-09 01:31N 28°10' W 015°24'  
Track history (hours):
 
Tides and Currents Weather Stations Pressure Air Temp Water Temp Dewpoint Dewpoint Depression Visibility Wind Speed Wind Dir Waves Ship Positions

Volcan De Tauce

Last reported at 2017-Oct-19 01:30 UTC. Time now 2017-Oct-19 01:49 UTC.
Position N 28°04' W 014°50'.

Length 120 m; draft 4.4 m.

Type: Passenger vessel. MMSI: 224761000.

Date/timePositionNaut miles runAvg speedWind from/ knotsBaromVisibWave heightAir tempDewpointWater temp
2017-Oct-19 01:30N 28°04' W 014°50'714.8
2017-Oct-19 01:00N 28°04' W 014°58'815.1
2017-Oct-19 00:30N 28°06' W 015°06'815.7
2017-Oct-19 00:00N 28°07' W 015°15'815.4
2017-Oct-18 23:30N 28°09' W 015°24'1 1.8
2017-Oct-18 23:00N 28°10' W 015°24'0 0.0
2017-Oct-18 22:30N 28°10' W 015°24'0 0.0
2017-Oct-18 22:00N 28°10' W 015°24'0 0.0
2017-Oct-18 21:30N 28°10' W 015°24'0 0.0
2017-Oct-18 21:00N 28°10' W 015°24'0 0.0
2017-Oct-18 20:31N 28°10' W 015°24'0 0.0
2017-Oct-18 20:01N 28°10' W 015°24'0 0.0
2017-Oct-18 19:31N 28°10' W 015°24'0 0.0
2017-Oct-18 19:01N 28°10' W 015°24'0 0.0
2017-Oct-18 18:31N 28°10' W 015°24'0 0.0
2017-Oct-18 18:00N 28°10' W 015°24'0 0.0
2017-Oct-18 17:30N 28°10' W 015°24'0 0.0
2017-Oct-18 17:01N 28°10' W 015°24'0 0.4
2017-Oct-18 16:31N 28°09' W 015°24'612.9
2017-Oct-18 16:01N 28°08' W 015°17'815.6
2017-Oct-18 15:31N 28°07' W 015°08'815.3
2017-Oct-18 15:01N 28°06' W 014°60'1515.3
2017-Oct-18 14:01N 28°03' W 014°43'815.5
2017-Oct-18 13:30N 28°02' W 014°34'815.9
2017-Oct-18 12:59N 28°01' W 014°24'1416.5
2017-Oct-18 12:08N 28°06' W 014°09'216.5
2017-Oct-18 12:00N 28°07' W 014°07'4 0.5
2017-Oct-18 03:52N 28°09' W 014°03'614.9
2017-Oct-18 03:28N 28°06' W 014°09'2514.5
2017-Oct-18 01:42N 28°03' W 014°38'315.6
2017-Oct-18 01:30N 28°03' W 014°42'815.8
2017-Oct-18 01:00N 28°05' W 014°50'815.2
2017-Oct-18 00:30N 28°05' W 014°59'815.4
2017-Oct-18 00:00N 28°07' W 015°07'815.8
2017-Oct-17 23:30N 28°08' W 015°16'713.9
2017-Oct-17 23:00N 28°09' W 015°24'0 0.5
2017-Oct-17 22:30N 28°10' W 015°24'0 0.0
2017-Oct-17 22:00N 28°10' W 015°24'0 0.0
2017-Oct-17 21:30N 28°10' W 015°24'0 0.0
2017-Oct-17 21:00N 28°10' W 015°24'0 0.0
2017-Oct-17 20:30N 28°10' W 015°24'0 0.0
2017-Oct-17 20:00N 28°10' W 015°24'0 0.0
2017-Oct-17 19:30N 28°10' W 015°24'0 0.0
2017-Oct-17 19:00N 28°10' W 015°24'0 0.0
2017-Oct-17 18:30N 28°10' W 015°24'0 0.0
2017-Oct-17 18:00N 28°10' W 015°24'0 0.0
2017-Oct-17 17:30N 28°10' W 015°24'0 0.0
2017-Oct-17 17:00N 28°10' W 015°24'3 5.9
2017-Oct-17 16:30N 28°08' W 015°21'815.6
2017-Oct-17 16:00N 28°07' W 015°12'815.5
2017-Oct-17 15:30N 28°06' W 015°04'714.9
2017-Oct-17 15:00N 28°05' W 014°55'714.9
2017-Oct-17 14:30N 28°04' W 014°47'715.0
2017-Oct-17 14:00N 28°03' W 014°39'714.7
2017-Oct-17 13:30N 28°02' W 014°30'816.1
2017-Oct-17 13:00N 28°01' W 014°21'1116.5
2017-Oct-17 12:20N 28°06' W 014°10'616.3
2017-Oct-17 11:58N 28°09' W 014°04'816.9
2017-Oct-17 11:30N 28°12' W 013°56'816.0
2017-Oct-17 11:00N 28°19' W 013°51'816.0
2017-Oct-17 10:30N 28°27' W 013°50'3 6.2
2017-Oct-17 10:00N 28°30' W 013°51'0 0.1
2017-Oct-17 06:03N 28°29' W 013°51'0 4.5
2017-Oct-17 06:00N 28°29' W 013°51'713.0
2017-Oct-17 05:26N 28°22' W 013°50'714.8
2017-Oct-17 04:57N 28°15' W 013°53'614.2
2017-Oct-17 04:30N 28°11' W 013°59'714.7
2017-Oct-17 04:00N 28°08' W 014°06'815.0
2017-Oct-17 03:30N 28°04' W 014°14'714.8
2017-Oct-17 03:00N 28°01' W 014°21'815.3
2017-Oct-17 02:30N 28°02' W 014°30'815.8
2017-Oct-17 02:01N 28°03' W 014°39'815.5
2017-Oct-17 01:29N 28°04' W 014°48'715.2
2017-Oct-17 01:01N 28°05' W 014°56'815.1
2017-Oct-17 00:31N 28°06' W 015°04'815.7
2017-Oct-17 00:01N 28°08' W 015°13'815.8
2017-Oct-16 23:31N 28°09' W 015°22'2 4.2
2017-Oct-16 23:00N 28°10' W 015°24'0 0.0
2017-Oct-16 22:30N 28°10' W 015°24'0 0.0
2017-Oct-16 22:00N 28°10' W 015°24'0 0.0
2017-Oct-16 21:30N 28°10' W 015°24'0 0.0
2017-Oct-16 21:00N 28°10' W 015°24'0 0.0
2017-Oct-16 20:30N 28°10' W 015°24'0 0.0
2017-Oct-16 20:00N 28°10' W 015°24'0 0.0
2017-Oct-16 19:30N 28°10' W 015°24'0 0.0
2017-Oct-16 19:00N 28°10' W 015°24'0 0.0
2017-Oct-16 18:30N 28°10' W 015°24'0 0.0
2017-Oct-16 18:01N 28°10' W 015°24'0 0.0
2017-Oct-16 17:30N 28°10' W 015°24'0 0.0
2017-Oct-16 17:00N 28°10' W 015°24'0 0.0
2017-Oct-16 16:30N 28°10' W 015°24'0 0.0
2017-Oct-16 16:00N 28°10' W 015°24'0 0.0
2017-Oct-16 15:30N 28°10' W 015°24'0 0.0
2017-Oct-16 15:00N 28°10' W 015°24'0 0.0
2017-Oct-16 14:30N 28°10' W 015°24'0 0.0
2017-Oct-16 13:30N 28°10' W 015°24'0 0.0
2017-Oct-16 13:01N 28°10' W 015°24'0 0.0
2017-Oct-16 12:30N 28°10' W 015°24'0 0.0
2017-Oct-16 12:00N 28°10' W 015°24'0 0.0
2017-Oct-16 11:30N 28°10' W 015°24'0 0.0
2017-Oct-16 11:00N 28°10' W 015°24'0 0.0
2017-Oct-16 10:30N 28°10' W 015°24'0 0.0
2017-Oct-16 10:00N 28°10' W 015°24'0 0.0
2017-Oct-16 09:30N 28°10' W 015°24'0 0.0
2017-Oct-16 09:00N 28°10' W 015°24'0 0.0
2017-Oct-16 08:30N 28°10' W 015°24'0 0.0
2017-Oct-16 08:00N 28°10' W 015°24'0 0.0
2017-Oct-16 07:30N 28°10' W 015°24'0 0.0
2017-Oct-16 07:00N 28°10' W 015°24'0 0.0
2017-Oct-16 06:30N 28°10' W 015°24'0 0.0
2017-Oct-16 06:00N 28°10' W 015°24'0 0.0
2017-Oct-16 05:30N 28°10' W 015°24'0 0.0
2017-Oct-16 05:01N 28°10' W 015°24'0 0.0
2017-Oct-16 04:30N 28°10' W 015°24'0 0.0
2017-Oct-16 04:01N 28°10' W 015°24'0 0.0
2017-Oct-16 03:30N 28°10' W 015°24'0 0.0
2017-Oct-16 03:00N 28°10' W 015°24'0 0.0
2017-Oct-16 02:30N 28°10' W 015°24'0 0.0
2017-Oct-16 02:00N 28°10' W 015°24'0 0.0
2017-Oct-16 01:30N 28°10' W 015°24'0 0.0
2017-Oct-16 01:00N 28°10' W 015°24'0 0.0
2017-Oct-16 00:30N 28°10' W 015°24'0 0.0
2017-Oct-16 00:00N 28°10' W 015°24'0 0.0
2017-Oct-15 23:31N 28°10' W 015°24'0 0.0
2017-Oct-15 23:00N 28°10' W 015°24'0 0.0
2017-Oct-15 22:30N 28°10' W 015°24'0 0.0
2017-Oct-15 22:00N 28°10' W 015°24'0 0.0
2017-Oct-15 21:30N 28°10' W 015°24'0 0.0
2017-Oct-15 21:00N 28°10' W 015°24'0 0.0
2017-Oct-15 20:30N 28°10' W 015°24'0 0.0
2017-Oct-15 20:00N 28°10' W 015°24'0 0.0
2017-Oct-15 19:30N 28°10' W 015°24'0 0.0
2017-Oct-15 19:00N 28°10' W 015°24'0 0.0
2017-Oct-15 18:30N 28°10' W 015°24'0 0.0
2017-Oct-15 18:00N 28°10' W 015°24'0 0.0
2017-Oct-15 17:30N 28°10' W 015°24'0 0.0
2017-Oct-15 17:00N 28°10' W 015°24'0 0.0
2017-Oct-15 16:30N 28°10' W 015°24'0 0.0
2017-Oct-15 16:00N 28°10' W 015°24'0 0.0
2017-Oct-15 15:30N 28°10' W 015°24'0 0.0
2017-Oct-15 15:00N 28°10' W 015°24'0 0.0
2017-Oct-15 14:00N 28°10' W 015°24'0 0.0
2017-Oct-15 13:30N 28°10' W 015°24'0 0.0
2017-Oct-15 13:01N 28°10' W 015°24'0 0.0
2017-Oct-15 12:31N 28°10' W 015°24'0 0.0
2017-Oct-15 12:01N 28°10' W 015°24'0 0.0
2017-Oct-15 11:30N 28°10' W 015°24'0 0.0
2017-Oct-15 11:00N 28°10' W 015°24'0 0.0
2017-Oct-15 10:31N 28°10' W 015°24'0 0.0
2017-Oct-15 10:00N 28°10' W 015°24'0 0.0
2017-Oct-15 09:30N 28°10' W 015°24'0 0.0
2017-Oct-15 09:00N 28°10' W 015°24'0 0.0
2017-Oct-15 08:30N 28°10' W 015°24'0 0.0
2017-Oct-15 08:00N 28°10' W 015°24'0 0.0
2017-Oct-15 07:30N 28°10' W 015°24'0 0.0
2017-Oct-15 07:00N 28°10' W 015°24'0 0.0
2017-Oct-15 06:30N 28°10' W 015°24'0 0.0
2017-Oct-15 06:00N 28°10' W 015°24'0 0.0
2017-Oct-15 05:30N 28°10' W 015°24'0 0.0
2017-Oct-15 05:00N 28°10' W 015°24'0 0.0
2017-Oct-15 04:30N 28°10' W 015°24'0 0.0
2017-Oct-15 04:00N 28°10' W 015°24'0 0.0
2017-Oct-15 03:30N 28°10' W 015°24'0 0.0
2017-Oct-15 03:00N 28°10' W 015°24'0 0.0
2017-Oct-15 02:30N 28°10' W 015°24'0 0.0
2017-Oct-15 02:00N 28°10' W 015°24'0 0.0
2017-Oct-15 01:30N 28°10' W 015°24'0 0.0
2017-Oct-15 01:00N 28°10' W 015°24'0 0.0
2017-Oct-15 00:30N 28°10' W 015°24'0 0.0
2017-Oct-15 00:00N 28°10' W 015°24'0 0.0
2017-Oct-14 23:30N 28°10' W 015°24'0 0.0
2017-Oct-14 23:00N 28°10' W 015°24'0 0.0
2017-Oct-14 22:30N 28°10' W 015°24'0 0.0
2017-Oct-14 22:00N 28°10' W 015°24'0 0.0
2017-Oct-14 21:30N 28°10' W 015°24'0 0.0
2017-Oct-14 21:01N 28°10' W 015°24'0 0.0
2017-Oct-14 20:30N 28°10' W 015°24'0 0.0
2017-Oct-14 20:00N 28°10' W 015°24'0 0.0
2017-Oct-14 19:30N 28°10' W 015°24'0 0.0
2017-Oct-14 19:00N 28°10' W 015°24'0 0.0
2017-Oct-14 18:30N 28°10' W 015°24'0 0.0
2017-Oct-14 18:00N 28°10' W 015°24'0 0.0
2017-Oct-14 17:30N 28°10' W 015°24'0 0.0
2017-Oct-14 17:00N 28°10' W 015°24'0 0.0
2017-Oct-14 16:30N 28°10' W 015°24'3 5.7
2017-Oct-14 16:00N 28°09' W 015°21'816.3
2017-Oct-14 15:30N 28°07' W 015°12'816.5
2017-Oct-14 15:00N 28°06' W 015°03'816.1
2017-Oct-14 14:30N 28°05' W 014°54'816.6
2017-Oct-14 14:00N 28°04' W 014°44'816.5
2017-Oct-14 13:30N 28°02' W 014°35'816.2
2017-Oct-14 13:00N 28°01' W 014°26'816.5
2017-Oct-14 12:30N 28°02' W 014°17'916.9
2017-Oct-14 11:58N 28°07' W 014°08'817.4
2017-Oct-14 11:30N 28°10' W 013°60'1016.6
2017-Oct-14 10:53N 28°18' W 013°52'617.2
2017-Oct-14 10:30N 28°24' W 013°49'611.9
2017-Oct-14 10:00N 28°30' W 013°51'0 0.0
2017-Oct-14 09:30N 28°30' W 013°51'0 0.0
2017-Oct-14 09:00N 28°30' W 013°51'0 0.0
2017-Oct-14 08:30N 28°30' W 013°51'0 0.0
2017-Oct-14 08:00N 28°30' W 013°51'0 0.0
2017-Oct-14 07:29N 28°30' W 013°51'0 0.0
2017-Oct-14 07:00N 28°30' W 013°51'0 0.0
2017-Oct-14 06:30N 28°30' W 013°51'0 0.0
2017-Oct-14 05:56N 28°30' W 013°51'1 1.2
2017-Oct-14 05:21N 28°29' W 013°51'2313.4
2017-Oct-14 03:38N 28°09' W 014°03'315.2
2017-Oct-14 03:26N 28°07' W 014°06'815.4
2017-Oct-14 02:53N 28°03' W 014°15'615.0
2017-Oct-14 02:30N 28°01' W 014°21'815.6
2017-Oct-14 02:01N 28°02' W 014°29'815.5
2017-Oct-14 01:31N 28°03' W 014°38'815.3
2017-Oct-14 01:01N 28°04' W 014°46'815.5
2017-Oct-14 00:30N 28°05' W 014°55'815.6
2017-Oct-14 00:01N 28°06' W 015°04'815.8
2017-Oct-13 23:31N 28°08' W 015°13'815.9
2017-Oct-13 23:01N 28°09' W 015°22'2 4.8
2017-Oct-13 22:30N 28°10' W 015°24'0 0.0
2017-Oct-13 22:01N 28°10' W 015°24'0 0.0
2017-Oct-13 21:30N 28°10' W 015°24'0 0.0
2017-Oct-13 21:00N 28°10' W 015°24'0 0.0
2017-Oct-13 20:30N 28°10' W 015°24'0 0.0
2017-Oct-13 20:00N 28°10' W 015°24'0 0.0
2017-Oct-13 19:30N 28°10' W 015°24'0 0.0
2017-Oct-13 19:00N 28°10' W 015°24'0 0.0
2017-Oct-13 18:30N 28°10' W 015°24'0 0.0
2017-Oct-13 18:00N 28°10' W 015°24'0 0.0
2017-Oct-13 17:30N 28°10' W 015°24'0 0.0
2017-Oct-13 17:00N 28°10' W 015°24'0 0.0
2017-Oct-13 16:30N 28°10' W 015°24'4 8.9
2017-Oct-13 16:00N 28°08' W 015°19'816.1
2017-Oct-13 15:30N 28°07' W 015°10'815.8
2017-Oct-13 15:00N 28°06' W 015°01'815.4
2017-Oct-13 14:31N 28°05' W 014°53'816.1
2017-Oct-13 14:01N 28°04' W 014°44'816.3
2017-Oct-13 13:30N 28°02' W 014°35'816.2
2017-Oct-13 13:00N 28°01' W 014°26'816.1
2017-Oct-13 12:30N 28°02' W 014°16'916.7
2017-Oct-13 11:59N 28°06' W 014°08'817.0
2017-Oct-13 11:31N 28°10' W 013°60'1616.2
2017-Oct-13 10:33N 28°23' W 013°50'116.8
2017-Oct-13 10:30N 28°24' W 013°49'612.3
2017-Oct-13 09:59N 28°30' W 013°51'0 0.0
2017-Oct-13 09:30N 28°30' W 013°51'0 0.0
2017-Oct-13 09:00N 28°30' W 013°51'0 0.0
2017-Oct-13 08:30N 28°30' W 013°51'0 0.0
2017-Oct-13 08:00N 28°30' W 013°51'0 0.0
2017-Oct-13 07:30N 28°30' W 013°51'0 0.0
2017-Oct-13 07:00N 28°30' W 013°51'0 0.0
2017-Oct-13 06:30N 28°30' W 013°51'0 0.0
2017-Oct-13 06:00N 28°30' W 013°51'0 0.0
2017-Oct-13 05:30N 28°30' W 013°51'1 1.0
2017-Oct-13 04:59N 28°29' W 013°51'613.1
2017-Oct-13 04:30N 28°23' W 013°50'815.7
2017-Oct-13 04:00N 28°16' W 013°53'1114.9
2017-Oct-13 03:16N 28°09' W 014°03'415.4
2017-Oct-13 03:00N 28°07' W 014°07'915.5
2017-Oct-13 02:26N 28°03' W 014°16'615.3
2017-Oct-13 02:00N 28°01' W 014°23'816.2
2017-Oct-13 01:31N 28°02' W 014°32'815.6
2017-Oct-13 01:01N 28°03' W 014°41'815.7
2017-Oct-13 00:30N 28°04' W 014°49'815.9
2017-Oct-13 00:00N 28°06' W 014°58'816.0
2017-Oct-12 23:30N 28°07' W 015°07'815.7
2017-Oct-12 23:00N 28°08' W 015°16'714.3
2017-Oct-12 22:30N 28°09' W 015°24'0 0.3
2017-Oct-12 22:00N 28°10' W 015°24'0 0.0
2017-Oct-12 21:30N 28°10' W 015°24'0 0.0
2017-Oct-12 21:00N 28°10' W 015°24'0 0.0
2017-Oct-12 20:30N 28°10' W 015°24'0 0.0
2017-Oct-12 20:00N 28°10' W 015°24'0 0.0
2017-Oct-12 19:30N 28°10' W 015°24'0 0.0
2017-Oct-12 19:00N 28°10' W 015°24'0 0.0
2017-Oct-12 18:30N 28°10' W 015°24'0 0.0
2017-Oct-12 18:00N 28°10' W 015°24'0 0.0
2017-Oct-12 17:30N 28°10' W 015°24'0 0.0
2017-Oct-12 17:00N 28°10' W 015°24'0 0.0
2017-Oct-12 16:30N 28°10' W 015°24'3 6.3
2017-Oct-12 16:00N 28°08' W 015°21'816.4
2017-Oct-12 15:30N 28°07' W 015°12'816.3
2017-Oct-12 15:00N 28°06' W 015°02'816.0
2017-Oct-12 14:30N 28°05' W 014°53'816.1
2017-Oct-12 14:00N 28°04' W 014°44'816.4
2017-Oct-12 13:30N 28°02' W 014°35'816.7
2017-Oct-12 13:00N 28°01' W 014°26'816.3
2017-Oct-12 12:30N 28°02' W 014°17'1117.3
2017-Oct-12 11:52N 28°08' W 014°06'817.6
2017-Oct-12 11:26N 28°11' W 013°58'1116.5
2017-Oct-12 10:46N 28°20' W 013°51'517.0
2017-Oct-12 10:30N 28°25' W 013°49'511.1
2017-Oct-12 10:00N 28°30' W 013°51'0 0.0
2017-Oct-12 09:29N 28°30' W 013°51'0 0.0
2017-Oct-12 09:00N 28°30' W 013°51'0 0.0
2017-Oct-12 08:24N 28°30' W 013°51'0 0.0
2017-Oct-12 08:00N 28°30' W 013°51'0 0.0
2017-Oct-12 07:30N 28°30' W 013°51'0 0.0
2017-Oct-12 06:59N 28°30' W 013°51'0 0.0
2017-Oct-12 06:27N 28°30' W 013°51'0 0.0
2017-Oct-12 05:56N 28°30' W 013°51'1 2.2
2017-Oct-12 05:30N 28°29' W 013°51'715.1
2017-Oct-12 05:00N 28°22' W 013°50'815.5
2017-Oct-12 04:30N 28°15' W 013°54'714.8
2017-Oct-12 04:00N 28°11' W 014°01'815.7
2017-Oct-12 03:30N 28°07' W 014°08'815.8
2017-Oct-12 03:00N 28°03' W 014°16'915.1
2017-Oct-12 02:23N 28°01' W 014°27'615.4
2017-Oct-12 01:58N 28°02' W 014°34'715.3
2017-Oct-12 01:29N 28°03' W 014°42'815.3
2017-Oct-12 01:00N 28°04' W 014°50'815.5
2017-Oct-12 00:30N 28°06' W 014°59'815.5
2017-Oct-12 00:01N 28°07' W 015°07'815.1
2017-Oct-11 23:30N 28°08' W 015°16'714.5
2017-Oct-11 23:00N 28°09' W 015°24'0 0.8
2017-Oct-11 22:30N 28°10' W 015°24'0 0.0
2017-Oct-11 22:00N 28°10' W 015°24'0 0.0
2017-Oct-11 21:30N 28°10' W 015°24'0 0.0
2017-Oct-11 21:00N 28°10' W 015°24'0 0.0
2017-Oct-11 20:31N 28°10' W 015°24'0 0.0
2017-Oct-11 20:01N 28°10' W 015°24'0 0.0
2017-Oct-11 19:30N 28°10' W 015°24'0 0.0
2017-Oct-11 19:01N 28°10' W 015°24'0 0.0
2017-Oct-11 18:31N 28°10' W 015°24'0 0.0
2017-Oct-11 18:00N 28°10' W 015°24'0 0.0
2017-Oct-11 17:31N 28°10' W 015°24'0 0.0
2017-Oct-11 17:01N 28°10' W 015°24'14 0.8
2017-Oct-11 00:00N 28°07' W 015°09'815.2
2017-Oct-10 23:30N 28°08' W 015°17'612.1
2017-Oct-10 23:00N 28°10' W 015°24'0 0.0
2017-Oct-10 22:30N 28°10' W 015°24'0 0.0
2017-Oct-10 22:00N 28°10' W 015°24'0 0.0
2017-Oct-10 21:30N 28°10' W 015°24'0 0.0
2017-Oct-10 21:00N 28°10' W 015°24'0 0.0
2017-Oct-10 20:30N 28°10' W 015°24'0 0.0
2017-Oct-10 20:00N 28°10' W 015°24'0 0.0
2017-Oct-10 19:30N 28°10' W 015°24'0 0.0
2017-Oct-10 19:00N 28°10' W 015°24'0 0.0
2017-Oct-10 18:30N 28°10' W 015°24'0 0.0
2017-Oct-10 18:00N 28°10' W 015°24'0 0.0
2017-Oct-10 17:30N 28°10' W 015°24'0 0.0
2017-Oct-10 17:00N 28°10' W 015°24'0 0.5
2017-Oct-10 16:30N 28°09' W 015°24'713.9
2017-Oct-10 16:01N 28°08' W 015°16'816.1
2017-Oct-10 15:31N 28°06' W 015°07'816.2
2017-Oct-10 15:00N 28°05' W 014°58'1615.9
2017-Oct-10 14:01N 28°03' W 014°40'815.9
2017-Oct-10 13:31N 28°02' W 014°31'816.2
2017-Oct-10 13:00N 28°01' W 014°22'916.6
2017-Oct-10 12:30N 28°04' W 014°13'817.4
2017-Oct-10 12:00N 28°08' W 014°05'917.3
2017-Oct-10 11:30N 28°12' W 013°56'1516.6
2017-Oct-10 10:35N 28°26' W 013°49'1 0.3
2017-Oct-10 05:22N 28°27' W 013°50'2114.4
2017-Oct-10 03:53N 28°09' W 014°03'716.2
2017-Oct-10 03:27N 28°06' W 014°10'715.7
2017-Oct-10 03:00N 28°03' W 014°17'815.0
2017-Oct-10 02:29N 28°01' W 014°26'1615.4
2017-Oct-10 01:26N 28°04' W 014°44'715.7
2017-Oct-10 01:00N 28°05' W 014°51'815.7
2017-Oct-10 00:30N 28°06' W 014°60'815.5
2017-Oct-10 00:00N 28°07' W 015°09'815.2
2017-Oct-09 23:30N 28°08' W 015°17'612.7
2017-Oct-09 23:00N 28°10' W 015°24'0 0.0
2017-Oct-09 22:30N 28°10' W 015°24'0 0.0
2017-Oct-09 22:00N 28°10' W 015°24'0 0.0
2017-Oct-09 21:30N 28°10' W 015°24'0 0.0
2017-Oct-09 21:00N 28°10' W 015°24'0 0.0
2017-Oct-09 20:30N 28°10' W 015°24'0 0.0
2017-Oct-09 20:00N 28°10' W 015°24'0 0.0
2017-Oct-09 19:30N 28°10' W 015°24'0 0.0
2017-Oct-09 19:00N 28°10' W 015°24'0 0.0
2017-Oct-09 18:30N 28°10' W 015°24'0 0.0
2017-Oct-09 18:00N 28°10' W 015°24'0 0.0
2017-Oct-09 17:30N 28°10' W 015°24'0 0.0
2017-Oct-09 17:00N 28°10' W 015°24'0 0.0
2017-Oct-09 16:30N 28°10' W 015°24'0 0.0
2017-Oct-09 16:01N 28°10' W 015°24'0 0.0
2017-Oct-09 15:30N 28°10' W 015°24'0 0.0
2017-Oct-09 15:00N 28°10' W 015°24'0 0.0
2017-Oct-09 14:30N 28°10' W 015°24'0 0.0
2017-Oct-09 14:01N 28°10' W 015°24'0 0.0
2017-Oct-09 13:30N 28°10' W 015°24'0 0.0
2017-Oct-09 13:00N 28°10' W 015°24'0 0.0
2017-Oct-09 12:30N 28°10' W 015°24'0 0.0
2017-Oct-09 12:00N 28°10' W 015°24'0 0.0
2017-Oct-09 11:30N 28°10' W 015°24'0 0.0
2017-Oct-09 11:00N 28°10' W 015°24'0 0.0
2017-Oct-09 10:30N 28°10' W 015°24'0 0.0
2017-Oct-09 10:00N 28°10' W 015°24'0 0.0
2017-Oct-09 09:30N 28°10' W 015°24'0 0.0
2017-Oct-09 09:00N 28°10' W 015°24'0 0.0
2017-Oct-09 08:30N 28°10' W 015°24'0 0.0
2017-Oct-09 08:00N 28°10' W 015°24'0 0.0
2017-Oct-09 07:30N 28°10' W 015°24'0 0.0
2017-Oct-09 07:00N 28°10' W 015°24'0 0.0
2017-Oct-09 06:30N 28°10' W 015°24'0 0.0
2017-Oct-09 06:01N 28°10' W 015°24'0 0.0
2017-Oct-09 05:30N 28°10' W 015°24'0 0.0
2017-Oct-09 05:00N 28°10' W 015°24'0 0.0
2017-Oct-09 04:31N 28°10' W 015°24'0 0.0
2017-Oct-09 04:00N 28°10' W 015°24'0 0.0
2017-Oct-09 03:30N 28°10' W 015°24'0 0.0
2017-Oct-09 03:00N 28°10' W 015°24'0 0.0
2017-Oct-09 02:31N 28°10' W 015°24'0 0.0
2017-Oct-09 02:01N 28°10' W 015°24'0 0.0
2017-Oct-09 01:31N 28°10' W 015°24'  

Dump ship's entire track history